sensor_id;sensor_type;location;lat;lon;timestamp;temperature;humidity
23100;DHT22;53791;50.696;4.396;2022-09-14T00:01:28;19.10;99.90
23100;DHT22;53791;50.696;4.396;2022-09-14T00:04:02;19.10;99.90
23100;DHT22;53791;50.696;4.396;2022-09-14T00:06:31;19.20;99.90
23100;DHT22;53791;50.696;4.396;2022-09-14T00:08:59;19.10;99.90
23100;DHT22;53791;50.696;4.396;2022-09-14T00:11:29;19.10;99.90
23100;DHT22;53791;50.696;4.396;2022-09-14T00:13:58;19.20;99.90
23100;DHT22;53791;50.696;4.396;2022-09-14T00:16:29;19.30;99.90
23100;DHT22;53791;50.696;4.396;2022-09-14T00:18:59;19.20;99.90
23100;DHT22;53791;50.696;4.396;2022-09-14T00:21:28;19.20;99.90
23100;DHT22;53791;50.696;4.396;2022-09-14T00:23:56;19.10;99.90
23100;DHT22;53791;50.696;4.396;2022-09-14T00:26:24;19.00;99.90
23100;DHT22;53791;50.696;4.396;2022-09-14T00:28:54;18.90;99.90
23100;DHT22;53791;50.696;4.396;2022-09-14T00:31:24;19.00;99.90
23100;DHT22;53791;50.696;4.396;2022-09-14T00:33:52;18.90;99.90
23100;DHT22;53791;50.696;4.396;2022-09-14T00:36:22;18.90;99.90
23100;DHT22;53791;50.696;4.396;2022-09-14T00:38:51;18.90;99.90
23100;DHT22;53791;50.696;4.396;2022-09-14T00:41:23;18.90;99.90
23100;DHT22;53791;50.696;4.396;2022-09-14T00:43:59;18.80;99.90
23100;DHT22;53791;50.696;4.396;2022-09-14T00:46:30;18.80;99.90
23100;DHT22;53791;50.696;4.396;2022-09-14T00:49:03;18.80;99.90
23100;DHT22;53791;50.696;4.396;2022-09-14T00:51:32;18.70;99.90
23100;DHT22;53791;50.696;4.396;2022-09-14T00:54:02;18.70;99.90
23100;DHT22;53791;50.696;4.396;2022-09-14T00:56:32;18.70;99.90
23100;DHT22;53791;50.696;4.396;2022-09-14T00:59:05;18.60;99.90
23100;DHT22;53791;50.696;4.396;2022-09-14T01:01:30;18.60;99.90
23100;DHT22;53791;50.696;4.396;2022-09-14T01:03:58;18.50;99.90
23100;DHT22;53791;50.696;4.396;2022-09-14T01:06:46;18.60;99.90
23100;DHT22;53791;50.696;4.396;2022-09-14T01:09:39;18.60;99.90
23100;DHT22;53791;50.696;4.396;2022-09-14T01:15:04;18.50;99.90
23100;DHT22;53791;50.696;4.396;2022-09-14T01:17:42;18.50;99.90
23100;DHT22;53791;50.696;4.396;2022-09-14T01:20:21;18.50;99.90
23100;DHT22;53791;50.696;4.396;2022-09-14T01:23:04;18.40;99.90
23100;DHT22;53791;50.696;4.396;2022-09-14T01:25:44;18.30;99.90
23100;DHT22;53791;50.696;4.396;2022-09-14T01:28:25;18.30;99.90
23100;DHT22;53791;50.696;4.396;2022-09-14T01:30:50;18.30;99.90
23100;DHT22;53791;50.696;4.396;2022-09-14T01:33:21;18.20;99.90
23100;DHT22;53791;50.696;4.396;2022-09-14T01:35:55;18.20;99.90
23100;DHT22;53791;50.696;4.396;2022-09-14T01:38:26;18.30;99.90
23100;DHT22;53791;50.696;4.396;2022-09-14T01:40:57;18.20;99.90
23100;DHT22;53791;50.696;4.396;2022-09-14T01:43:33;18.20;99.90
23100;DHT22;53791;50.696;4.396;2022-09-14T01:46:16;18.20;99.90
23100;DHT22;53791;50.696;4.396;2022-09-14T01:49:01;18.30;99.90
23100;DHT22;53791;50.696;4.396;2022-09-14T01:51:38;18.20;99.90
23100;DHT22;53791;50.696;4.396;2022-09-14T01:54:22;18.20;99.90
23100;DHT22;53791;50.696;4.396;2022-09-14T01:57:13;18.20;99.90
23100;DHT22;53791;50.696;4.396;2022-09-14T01:59:29;18.20;99.90
23100;DHT22;53791;50.696;4.396;2022-09-14T02:01:59;17.90;99.90
23100;DHT22;53791;50.696;4.396;2022-09-14T02:04:35;17.90;99.90
23100;DHT22;53791;50.696;4.396;2022-09-14T02:06:57;17.90;99.90
23100;DHT22;53791;50.696;4.396;2022-09-14T02:09:25;17.90;99.90
23100;DHT22;53791;50.696;4.396;2022-09-14T02:11:54;17.90;99.90
23100;DHT22;53791;50.696;4.396;2022-09-14T02:14:23;17.90;99.90
23100;DHT22;53791;50.696;4.396;2022-09-14T02:16:50;17.80;99.90
23100;DHT22;53791;50.696;4.396;2022-09-14T02:19:18;17.80;99.90
23100;DHT22;53791;50.696;4.396;2022-09-14T02:21:46;17.70;99.90
23100;DHT22;53791;50.696;4.396;2022-09-14T02:24:13;17.60;99.90
23100;DHT22;53791;50.696;4.396;2022-09-14T02:26:42;17.70;99.90
23100;DHT22;53791;50.696;4.396;2022-09-14T02:29:09;17.70;99.90
23100;DHT22;53791;50.696;4.396;2022-09-14T02:31:53;17.80;99.90
23100;DHT22;53791;50.696;4.396;2022-09-14T02:37:36;17.60;99.90
23100;DHT22;53791;50.696;4.396;2022-09-14T02:48:47;17.40;99.90
23100;DHT22;53791;50.696;4.396;2022-09-14T02:51:24;17.30;99.90
23100;DHT22;53791;50.696;4.396;2022-09-14T02:54:05;17.30;99.90
23100;DHT22;53791;50.696;4.396;2022-09-14T02:56:29;17.30;99.90
23100;DHT22;53791;50.696;4.396;2022-09-14T02:58:56;17.20;99.90
23100;DHT22;53791;50.696;4.396;2022-09-14T03:01:24;17.20;99.90
23100;DHT22;53791;50.696;4.396;2022-09-14T03:03:51;17.10;99.90
23100;DHT22;53791;50.696;4.396;2022-09-14T03:06:19;17.10;99.90
23100;DHT22;53791;50.696;4.396;2022-09-14T03:08:47;17.20;99.90
23100;DHT22;53791;50.696;4.396;2022-09-14T03:11:14;17.10;99.90
23100;DHT22;53791;50.696;4.396;2022-09-14T03:13:42;17.20;99.90
23100;DHT22;53791;50.696;4.396;2022-09-14T03:16:12;17.20;99.90
23100;DHT22;53791;50.696;4.396;2022-09-14T03:18:40;17.30;99.90
23100;DHT22;53791;50.696;4.396;2022-09-14T03:21:10;17.30;99.90
23100;DHT22;53791;50.696;4.396;2022-09-14T03:23:40;17.30;99.90
23100;DHT22;53791;50.696;4.396;2022-09-14T03:26:13;17.20;99.90
23100;DHT22;53791;50.696;4.396;2022-09-14T03:28:41;17.30;99.90
23100;DHT22;53791;50.696;4.396;2022-09-14T03:31:11;17.20;99.90
23100;DHT22;53791;50.696;4.396;2022-09-14T03:33:39;17.10;99.90
23100;DHT22;53791;50.696;4.396;2022-09-14T03:36:15;17.10;99.90
23100;DHT22;53791;50.696;4.396;2022-09-14T03:38:44;17.10;99.90
23100;DHT22;53791;50.696;4.396;2022-09-14T03:41:12;17.10;99.90
23100;DHT22;53791;50.696;4.396;2022-09-14T03:43:41;17.10;99.90
23100;DHT22;53791;50.696;4.396;2022-09-14T03:46:12;17.20;99.90
23100;DHT22;53791;50.696;4.396;2022-09-14T03:48:39;17.20;99.90
23100;DHT22;53791;50.696;4.396;2022-09-14T03:51:08;17.20;99.90
23100;DHT22;53791;50.696;4.396;2022-09-14T03:53:37;17.10;99.90
23100;DHT22;53791;50.696;4.396;2022-09-14T03:56:09;17.00;99.90
23100;DHT22;53791;50.696;4.396;2022-09-14T03:58:37;16.90;99.90
23100;DHT22;53791;50.696;4.396;2022-09-14T04:01:06;16.90;99.90
23100;DHT22;53791;50.696;4.396;2022-09-14T04:03:35;16.80;99.90
23100;DHT22;53791;50.696;4.396;2022-09-14T04:06:03;16.90;99.90
23100;DHT22;53791;50.696;4.396;2022-09-14T04:08:33;16.80;99.90
23100;DHT22;53791;50.696;4.396;2022-09-14T04:11:09;16.80;99.90
23100;DHT22;53791;50.696;4.396;2022-09-14T04:13:34;16.70;99.90
23100;DHT22;53791;50.696;4.396;2022-09-14T04:16:02;16.70;99.90
23100;DHT22;53791;50.696;4.396;2022-09-14T04:18:30;16.70;99.90
23100;DHT22;53791;50.696;4.396;2022-09-14T04:21:00;16.60;99.90
23100;DHT22;53791;50.696;4.396;2022-09-14T04:23:28;16.60;99.90
23100;DHT22;53791;50.696;4.396;2022-09-14T04:25:56;16.60;99.90
23100;DHT22;53791;50.696;4.396;2022-09-14T04:28:24;16.70;99.90
23100;DHT22;53791;50.696;4.396;2022-09-14T04:30:59;16.60;99.90
23100;DHT22;53791;50.696;4.396;2022-09-14T04:33:29;16.60;99.90
23100;DHT22;53791;50.696;4.396;2022-09-14T04:36:03;16.70;99.90
23100;DHT22;53791;50.696;4.396;2022-09-14T04:38:30;16.70;99.90
23100;DHT22;53791;50.696;4.396;2022-09-14T04:40:58;16.70;99.90
23100;DHT22;53791;50.696;4.396;2022-09-14T04:43:26;16.60;99.90
23100;DHT22;53791;50.696;4.396;2022-09-14T04:45:59;16.40;99.90
23100;DHT22;53791;50.696;4.396;2022-09-14T04:48:24;16.50;99.90
23100;DHT22;53791;50.696;4.396;2022-09-14T04:50:54;16.50;99.90
23100;DHT22;53791;50.696;4.396;2022-09-14T04:53:23;16.50;99.90
23100;DHT22;53791;50.696;4.396;2022-09-14T04:55:52;16.50;99.90
23100;DHT22;53791;50.696;4.396;2022-09-14T04:58:19;16.40;99.90
23100;DHT22;53791;50.696;4.396;2022-09-14T05:00:47;16.40;99.90
23100;DHT22;53791;50.696;4.396;2022-09-14T05:03:14;16.40;99.90
23100;DHT22;53791;50.696;4.396;2022-09-14T05:05:42;16.40;99.90
23100;DHT22;53791;50.696;4.396;2022-09-14T05:08:09;16.30;99.90
23100;DHT22;53791;50.696;4.396;2022-09-14T05:10:37;16.30;99.90
23100;DHT22;53791;50.696;4.396;2022-09-14T05:13:04;16.30;99.90
23100;DHT22;53791;50.696;4.396;2022-09-14T05:15:32;16.20;99.90
23100;DHT22;53791;50.696;4.396;2022-09-14T05:17:59;16.20;99.90
23100;DHT22;53791;50.696;4.396;2022-09-14T05:20:28;16.30;99.90
23100;DHT22;53791;50.696;4.396;2022-09-14T05:22:56;16.30;99.90
23100;DHT22;53791;50.696;4.396;2022-09-14T05:25:23;16.20;99.90
23100;DHT22;53791;50.696;4.396;2022-09-14T05:27:52;16.20;99.90
23100;DHT22;53791;50.696;4.396;2022-09-14T05:30:19;16.20;99.90
23100;DHT22;53791;50.696;4.396;2022-09-14T05:32:47;16.30;99.90
23100;DHT22;53791;50.696;4.396;2022-09-14T05:35:14;16.10;99.90
23100;DHT22;53791;50.696;4.396;2022-09-14T05:37:42;16.10;99.90
23100;DHT22;53791;50.696;4.396;2022-09-14T05:40:10;16.00;99.90
23100;DHT22;53791;50.696;4.396;2022-09-14T05:42:37;16.00;99.90
23100;DHT22;53791;50.696;4.396;2022-09-14T05:45:05;16.10;99.90
23100;DHT22;53791;50.696;4.396;2022-09-14T05:47:33;16.10;99.90
23100;DHT22;53791;50.696;4.396;2022-09-14T05:50:00;16.00;99.90
23100;DHT22;53791;50.696;4.396;2022-09-14T05:52:28;15.90;99.90
23100;DHT22;53791;50.696;4.396;2022-09-14T05:54:56;16.10;99.90
23100;DHT22;53791;50.696;4.396;2022-09-14T05:57:24;16.10;99.90
23100;DHT22;53791;50.696;4.396;2022-09-14T05:59:51;16.10;99.90
23100;DHT22;53791;50.696;4.396;2022-09-14T06:02:18;16.10;99.90
23100;DHT22;53791;50.696;4.396;2022-09-14T06:04:46;16.10;99.90
23100;DHT22;53791;50.696;4.396;2022-09-14T06:07:13;16.00;99.90
23100;DHT22;53791;50.696;4.396;2022-09-14T06:09:41;16.20;99.90
23100;DHT22;53791;50.696;4.396;2022-09-14T06:12:09;16.10;99.90
23100;DHT22;53791;50.696;4.396;2022-09-14T06:14:36;16.10;99.90
23100;DHT22;53791;50.696;4.396;2022-09-14T06:17:06;16.10;99.90
23100;DHT22;53791;50.696;4.396;2022-09-14T06:19:33;16.10;99.90
23100;DHT22;53791;50.696;4.396;2022-09-14T06:22:01;16.20;99.90
23100;DHT22;53791;50.696;4.396;2022-09-14T06:24:28;16.20;99.90
23100;DHT22;53791;50.696;4.396;2022-09-14T06:26:56;16.10;99.90
23100;DHT22;53791;50.696;4.396;2022-09-14T06:29:23;16.10;99.90
23100;DHT22;53791;50.696;4.396;2022-09-14T06:31:53;16.00;99.90
23100;DHT22;53791;50.696;4.396;2022-09-14T06:34:20;16.10;99.90
23100;DHT22;53791;50.696;4.396;2022-09-14T06:36:48;16.10;99.90
23100;DHT22;53791;50.696;4.396;2022-09-14T06:39:15;16.00;99.90
23100;DHT22;53791;50.696;4.396;2022-09-14T06:41:43;16.10;99.90
23100;DHT22;53791;50.696;4.396;2022-09-14T06:44:10;16.10;99.90
23100;DHT22;53791;50.696;4.396;2022-09-14T06:46:38;16.10;99.90
23100;DHT22;53791;50.696;4.396;2022-09-14T06:49:09;16.00;99.90
23100;DHT22;53791;50.696;4.396;2022-09-14T06:51:39;16.10;99.90
23100;DHT22;53791;50.696;4.396;2022-09-14T06:54:07;16.10;99.90
23100;DHT22;53791;50.696;4.396;2022-09-14T06:56:37;16.10;99.90
23100;DHT22;53791;50.696;4.396;2022-09-14T06:59:07;16.20;99.90
23100;DHT22;53791;50.696;4.396;2022-09-14T07:01:35;16.30;99.90
23100;DHT22;53791;50.696;4.396;2022-09-14T07:04:03;16.30;99.90
23100;DHT22;53791;50.696;4.396;2022-09-14T07:06:41;16.20;99.90
23100;DHT22;53791;50.696;4.396;2022-09-14T07:09:13;16.00;99.90
23100;DHT22;53791;50.696;4.396;2022-09-14T07:11:39;16.00;99.90
23100;DHT22;53791;50.696;4.396;2022-09-14T07:14:07;16.20;99.90
23100;DHT22;53791;50.696;4.396;2022-09-14T07:16:37;16.10;99.90
23100;DHT22;53791;50.696;4.396;2022-09-14T07:19:13;16.10;99.90
23100;DHT22;53791;50.696;4.396;2022-09-14T07:21:36;16.10;99.90
23100;DHT22;53791;50.696;4.396;2022-09-14T07:24:04;16.00;99.90
23100;DHT22;53791;50.696;4.396;2022-09-14T07:26:34;16.10;99.90
23100;DHT22;53791;50.696;4.396;2022-09-14T07:29:06;16.20;99.90
23100;DHT22;53791;50.696;4.396;2022-09-14T07:31:43;16.10;99.90
23100;DHT22;53791;50.696;4.396;2022-09-14T07:34:07;16.10;99.90
23100;DHT22;53791;50.696;4.396;2022-09-14T07:36:36;16.10;99.90
23100;DHT22;53791;50.696;4.396;2022-09-14T07:39:06;16.20;99.90
23100;DHT22;53791;50.696;4.396;2022-09-14T07:41:34;16.20;99.90
23100;DHT22;53791;50.696;4.396;2022-09-14T07:44:04;16.30;99.90
23100;DHT22;53791;50.696;4.396;2022-09-14T07:46:36;16.30;99.90
23100;DHT22;53791;50.696;4.396;2022-09-14T07:49:05;16.30;99.90
23100;DHT22;53791;50.696;4.396;2022-09-14T07:51:33;16.30;99.90
23100;DHT22;53791;50.696;4.396;2022-09-14T07:54:03;16.30;99.90
23100;DHT22;53791;50.696;4.396;2022-09-14T07:56:31;16.20;99.90
23100;DHT22;53791;50.696;4.396;2022-09-14T07:59:00;16.20;99.90
23100;DHT22;53791;50.696;4.396;2022-09-14T08:01:29;16.30;99.90
23100;DHT22;53791;50.696;4.396;2022-09-14T08:04:01;16.30;99.90
23100;DHT22;53791;50.696;4.396;2022-09-14T08:06:29;16.30;99.90
23100;DHT22;53791;50.696;4.396;2022-09-14T08:08:57;16.20;99.90
23100;DHT22;53791;50.696;4.396;2022-09-14T08:11:27;16.20;99.90
23100;DHT22;53791;50.696;4.396;2022-09-14T08:13:59;16.30;99.90
23100;DHT22;53791;50.696;4.396;2022-09-14T08:16:29;16.30;99.90
23100;DHT22;53791;50.696;4.396;2022-09-14T08:18:59;16.30;99.90
23100;DHT22;53791;50.696;4.396;2022-09-14T08:21:34;16.40;99.90
23100;DHT22;53791;50.696;4.396;2022-09-14T08:23:59;16.40;99.90
23100;DHT22;53791;50.696;4.396;2022-09-14T08:26:29;16.40;99.90
23100;DHT22;53791;50.696;4.396;2022-09-14T08:28:57;16.50;99.90
23100;DHT22;53791;50.696;4.396;2022-09-14T08:31:29;16.50;99.90
23100;DHT22;53791;50.696;4.396;2022-09-14T08:34:01;16.50;99.90
23100;DHT22;53791;50.696;4.396;2022-09-14T08:36:37;16.40;99.90
23100;DHT22;53791;50.696;4.396;2022-09-14T08:39:00;16.50;99.90
23100;DHT22;53791;50.696;4.396;2022-09-14T08:44:20;16.40;99.90
23100;DHT22;53791;50.696;4.396;2022-09-14T08:47:07;16.40;99.90
23100;DHT22;53791;50.696;4.396;2022-09-14T08:52:44;16.20;99.90
23100;DHT22;53791;50.696;4.396;2022-09-14T09:01:05;16.30;99.90
23100;DHT22;53791;50.696;4.396;2022-09-14T09:03:40;16.30;99.90
23100;DHT22;53791;50.696;4.396;2022-09-14T09:06:14;16.30;99.90
23100;DHT22;53791;50.696;4.396;2022-09-14T09:11:24;16.10;99.90
23100;DHT22;53791;50.696;4.396;2022-09-14T09:13:53;16.20;99.90
23100;DHT22;53791;50.696;4.396;2022-09-14T09:16:23;16.20;99.90
23100;DHT22;53791;50.696;4.396;2022-09-14T09:19:00;16.20;99.90
23100;DHT22;53791;50.696;4.396;2022-09-14T09:21:42;16.30;99.90
23100;DHT22;53791;50.696;4.396;2022-09-14T09:24:21;16.40;99.90
23100;DHT22;53791;50.696;4.396;2022-09-14T09:26:46;16.30;99.90
23100;DHT22;53791;50.696;4.396;2022-09-14T09:29:14;16.30;99.90
23100;DHT22;53791;50.696;4.396;2022-09-14T09:31:48;16.40;99.90
23100;DHT22;53791;50.696;4.396;2022-09-14T09:34:17;16.40;99.90
23100;DHT22;53791;50.696;4.396;2022-09-14T09:36:47;16.40;99.90
23100;DHT22;53791;50.696;4.396;2022-09-14T09:39:16;16.40;99.90
23100;DHT22;53791;50.696;4.396;2022-09-14T09:41:55;16.50;99.90
23100;DHT22;53791;50.696;4.396;2022-09-14T09:44:22;16.50;99.90
23100;DHT22;53791;50.696;4.396;2022-09-14T09:47:00;16.60;99.90
23100;DHT22;53791;50.696;4.396;2022-09-14T09:49:36;16.60;99.90
23100;DHT22;53791;50.696;4.396;2022-09-14T09:52:09;16.70;99.90
23100;DHT22;53791;50.696;4.396;2022-09-14T09:54:40;16.60;99.90
23100;DHT22;53791;50.696;4.396;2022-09-14T09:57:29;16.70;99.90
23100;DHT22;53791;50.696;4.396;2022-09-14T10:00:21;16.70;99.90
23100;DHT22;53791;50.696;4.396;2022-09-14T10:02:45;16.70;99.90
23100;DHT22;53791;50.696;4.396;2022-09-14T10:07:51;16.80;99.90
23100;DHT22;53791;50.696;4.396;2022-09-14T10:15:34;17.00;99.90
23100;DHT22;53791;50.696;4.396;2022-09-14T10:18:16;17.00;99.90
23100;DHT22;53791;50.696;4.396;2022-09-14T10:23:23;17.20;99.90
23100;DHT22;53791;50.696;4.396;2022-09-14T10:26:14;17.20;99.90
23100;DHT22;53791;50.696;4.396;2022-09-14T10:28:26;17.20;99.90
23100;DHT22;53791;50.696;4.396;2022-09-14T10:33:49;17.20;99.90
23100;DHT22;53791;50.696;4.396;2022-09-14T10:36:32;17.30;99.90
23100;DHT22;53791;50.696;4.396;2022-09-14T10:39:23;17.30;99.90
23100;DHT22;53791;50.696;4.396;2022-09-14T10:42:29;17.30;99.90
23100;DHT22;53791;50.696;4.396;2022-09-14T10:45:03;17.10;99.90
23100;DHT22;53791;50.696;4.396;2022-09-14T10:48:11;17.10;99.90
23100;DHT22;53791;50.696;4.396;2022-09-14T10:50:34;17.10;99.90
23100;DHT22;53791;50.696;4.396;2022-09-14T10:53:19;17.20;99.90
23100;DHT22;53791;50.696;4.396;2022-09-14T10:55:52;17.20;99.90
23100;DHT22;53791;50.696;4.396;2022-09-14T10:58:36;17.30;99.90
23100;DHT22;53791;50.696;4.396;2022-09-14T11:03:57;17.30;99.90
23100;DHT22;53791;50.696;4.396;2022-09-14T11:06:55;17.40;99.90
23100;DHT22;53791;50.696;4.396;2022-09-14T11:09:26;17.40;99.90
23100;DHT22;53791;50.696;4.396;2022-09-14T11:12:01;17.50;99.90
23100;DHT22;53791;50.696;4.396;2022-09-14T11:15:13;17.30;99.90
23100;DHT22;53791;50.696;4.396;2022-09-14T11:17:49;17.40;99.90
23100;DHT22;53791;50.696;4.396;2022-09-14T11:20:33;17.40;99.90
23100;DHT22;53791;50.696;4.396;2022-09-14T11:28:39;17.40;99.90
23100;DHT22;53791;50.696;4.396;2022-09-14T11:31:05;17.30;99.90
23100;DHT22;53791;50.696;4.396;2022-09-14T11:33:45;17.40;99.90
23100;DHT22;53791;50.696;4.396;2022-09-14T11:36:29;17.40;99.90
23100;DHT22;53791;50.696;4.396;2022-09-14T11:39:09;17.40;99.90
23100;DHT22;53791;50.696;4.396;2022-09-14T11:41:40;17.40;99.90
23100;DHT22;53791;50.696;4.396;2022-09-14T11:44:16;17.40;99.90
23100;DHT22;53791;50.696;4.396;2022-09-14T11:46:54;17.40;99.90
23100;DHT22;53791;50.696;4.396;2022-09-14T11:52:06;17.50;99.90
23100;DHT22;53791;50.696;4.396;2022-09-14T11:54:33;17.50;99.90
23100;DHT22;53791;50.696;4.396;2022-09-14T11:57:02;17.50;99.90
23100;DHT22;53791;50.696;4.396;2022-09-14T12:10:17;17.40;99.90
23100;DHT22;53791;50.696;4.396;2022-09-14T12:12:56;17.40;99.90
23100;DHT22;53791;50.696;4.396;2022-09-14T12:15:35;17.30;99.90
23100;DHT22;53791;50.696;4.396;2022-09-14T12:23:28;17.30;99.90
23100;DHT22;53791;50.696;4.396;2022-09-14T12:28:46;17.10;99.90
23100;DHT22;53791;50.696;4.396;2022-09-14T12:31:08;17.20;99.90
23100;DHT22;53791;50.696;4.396;2022-09-14T12:33:40;17.30;99.90
23100;DHT22;53791;50.696;4.396;2022-09-14T12:43:53;17.20;99.90
23100;DHT22;53791;50.696;4.396;2022-09-14T12:49:23;17.20;99.90
23100;DHT22;53791;50.696;4.396;2022-09-14T12:51:52;17.10;99.90
23100;DHT22;53791;50.696;4.396;2022-09-14T12:54:29;17.10;99.90
23100;DHT22;53791;50.696;4.396;2022-09-14T12:57:26;17.00;99.90
23100;DHT22;53791;50.696;4.396;2022-09-14T13:02:42;17.00;99.90
23100;DHT22;53791;50.696;4.396;2022-09-14T13:05:04;17.00;99.90
23100;DHT22;53791;50.696;4.396;2022-09-14T13:07:34;17.00;99.90
23100;DHT22;53791;50.696;4.396;2022-09-14T13:10:15;17.00;99.90
23100;DHT22;53791;50.696;4.396;2022-09-14T13:12:43;17.00;99.90
23100;DHT22;53791;50.696;4.396;2022-09-14T13:15:27;17.00;99.90
23100;DHT22;53791;50.696;4.396;2022-09-14T13:18:02;17.00;99.90
23100;DHT22;53791;50.696;4.396;2022-09-14T13:20:33;17.00;99.90
23100;DHT22;53791;50.696;4.396;2022-09-14T13:23:02;17.00;99.90
23100;DHT22;53791;50.696;4.396;2022-09-14T13:25:33;17.00;99.90
23100;DHT22;53791;50.696;4.396;2022-09-14T13:28:06;17.00;99.90
23100;DHT22;53791;50.696;4.396;2022-09-14T13:30:35;17.00;99.90
23100;DHT22;53791;50.696;4.396;2022-09-14T13:33:03;16.90;99.90
23100;DHT22;53791;50.696;4.396;2022-09-14T13:35:33;16.70;99.90
23100;DHT22;53791;50.696;4.396;2022-09-14T13:38:18;16.60;99.90
23100;DHT22;53791;50.696;4.396;2022-09-14T13:40:47;16.80;99.90
23100;DHT22;53791;50.696;4.396;2022-09-14T13:43:16;16.80;99.90
23100;DHT22;53791;50.696;4.396;2022-09-14T13:45:45;16.70;99.90
23100;DHT22;53791;50.696;4.396;2022-09-14T13:48:14;16.60;99.90
23100;DHT22;53791;50.696;4.396;2022-09-14T13:50:47;16.60;99.90
23100;DHT22;53791;50.696;4.396;2022-09-14T13:56:26;16.70;99.90
23100;DHT22;53791;50.696;4.396;2022-09-14T13:59:14;16.80;99.90
23100;DHT22;53791;50.696;4.396;2022-09-14T14:09:50;16.90;99.90
23100;DHT22;53791;50.696;4.396;2022-09-14T14:12:27;16.90;99.90
23100;DHT22;53791;50.696;4.396;2022-09-14T14:15:30;16.90;99.90
23100;DHT22;53791;50.696;4.396;2022-09-14T14:17:35;17.00;99.90
23100;DHT22;53791;50.696;4.396;2022-09-14T14:20:31;17.10;99.90
23100;DHT22;53791;50.696;4.396;2022-09-14T14:23:16;17.20;99.90
23100;DHT22;53791;50.696;4.396;2022-09-14T14:25:47;17.10;99.90
23100;DHT22;53791;50.696;4.396;2022-09-14T14:28:25;17.20;99.90
23100;DHT22;53791;50.696;4.396;2022-09-14T14:30:55;17.20;99.90
23100;DHT22;53791;50.696;4.396;2022-09-14T14:33:23;17.10;99.90
23100;DHT22;53791;50.696;4.396;2022-09-14T14:35:52;17.20;99.90
23100;DHT22;53791;50.696;4.396;2022-09-14T14:38:22;17.10;99.90
23100;DHT22;53791;50.696;4.396;2022-09-14T14:40:51;17.00;99.90
23100;DHT22;53791;50.696;4.396;2022-09-14T14:43:23;17.00;99.90
23100;DHT22;53791;50.696;4.396;2022-09-14T14:45:56;17.00;99.90
23100;DHT22;53791;50.696;4.396;2022-09-14T14:48:26;17.10;99.90
23100;DHT22;53791;50.696;4.396;2022-09-14T14:50:56;17.10;99.90
23100;DHT22;53791;50.696;4.396;2022-09-14T14:53:24;17.00;99.90
23100;DHT22;53791;50.696;4.396;2022-09-14T14:55:57;17.00;99.90
23100;DHT22;53791;50.696;4.396;2022-09-14T14:58:40;17.00;99.90
23100;DHT22;53791;50.696;4.396;2022-09-14T15:01:02;17.10;99.90
23100;DHT22;53791;50.696;4.396;2022-09-14T15:03:38;17.10;99.90
23100;DHT22;53791;50.696;4.396;2022-09-14T15:06:16;17.10;99.90
23100;DHT22;53791;50.696;4.396;2022-09-14T15:08:43;17.10;99.90
23100;DHT22;53791;50.696;4.396;2022-09-14T15:11:17;17.00;99.90
23100;DHT22;53791;50.696;4.396;2022-09-14T15:13:45;17.10;99.90
23100;DHT22;53791;50.696;4.396;2022-09-14T15:16:14;17.10;99.90
23100;DHT22;53791;50.696;4.396;2022-09-14T15:18:42;17.20;99.90
23100;DHT22;53791;50.696;4.396;2022-09-14T15:21:10;17.20;99.90
23100;DHT22;53791;50.696;4.396;2022-09-14T15:23:37;17.10;99.90
23100;DHT22;53791;50.696;4.396;2022-09-14T15:26:05;17.10;99.90
23100;DHT22;53791;50.696;4.396;2022-09-14T15:28:36;17.20;99.90
23100;DHT22;53791;50.696;4.396;2022-09-14T15:31:05;17.20;99.90
23100;DHT22;53791;50.696;4.396;2022-09-14T15:33:32;17.30;99.90
23100;DHT22;53791;50.696;4.396;2022-09-14T15:36:00;17.30;99.90
23100;DHT22;53791;50.696;4.396;2022-09-14T15:38:35;17.20;99.90
23100;DHT22;53791;50.696;4.396;2022-09-14T15:41:01;17.20;99.90
23100;DHT22;53791;50.696;4.396;2022-09-14T15:43:31;17.20;99.90
23100;DHT22;53791;50.696;4.396;2022-09-14T15:46:02;17.10;99.90
23100;DHT22;53791;50.696;4.396;2022-09-14T15:48:29;17.00;99.90
23100;DHT22;53791;50.696;4.396;2022-09-14T15:51:01;16.90;99.90
23100;DHT22;53791;50.696;4.396;2022-09-14T15:53:28;16.90;99.90
23100;DHT22;53791;50.696;4.396;2022-09-14T15:55:55;17.00;99.90
23100;DHT22;53791;50.696;4.396;2022-09-14T15:58:24;17.00;99.90
23100;DHT22;53791;50.696;4.396;2022-09-14T16:00:51;16.90;99.90
23100;DHT22;53791;50.696;4.396;2022-09-14T16:03:19;16.70;99.90
23100;DHT22;53791;50.696;4.396;2022-09-14T16:05:48;16.70;99.90
23100;DHT22;53791;50.696;4.396;2022-09-14T16:08:15;16.70;99.90
23100;DHT22;53791;50.696;4.396;2022-09-14T16:10:43;16.70;99.90
23100;DHT22;53791;50.696;4.396;2022-09-14T16:13:11;16.80;99.90
23100;DHT22;53791;50.696;4.396;2022-09-14T16:15:38;16.80;99.90
23100;DHT22;53791;50.696;4.396;2022-09-14T16:18:10;16.80;99.90
23100;DHT22;53791;50.696;4.396;2022-09-14T16:20:35;16.80;99.90
23100;DHT22;53791;50.696;4.396;2022-09-14T16:23:03;17.00;99.90
23100;DHT22;53791;50.696;4.396;2022-09-14T16:25:39;17.00;99.90
23100;DHT22;53791;50.696;4.396;2022-09-14T16:28:09;17.00;99.90
23100;DHT22;53791;50.696;4.396;2022-09-14T16:30:36;17.00;99.90
23100;DHT22;53791;50.696;4.396;2022-09-14T16:33:04;17.00;99.90
23100;DHT22;53791;50.696;4.396;2022-09-14T16:35:33;17.00;99.90
23100;DHT22;53791;50.696;4.396;2022-09-14T16:38:05;16.90;99.90
23100;DHT22;53791;50.696;4.396;2022-09-14T16:40:33;16.80;99.90
23100;DHT22;53791;50.696;4.396;2022-09-14T16:43:02;16.70;99.90
23100;DHT22;53791;50.696;4.396;2022-09-14T16:45:29;16.60;99.90
23100;DHT22;53791;50.696;4.396;2022-09-14T16:47:57;16.60;99.90
23100;DHT22;53791;50.696;4.396;2022-09-14T16:50:24;16.60;99.90
23100;DHT22;53791;50.696;4.396;2022-09-14T16:52:52;16.60;99.90
23100;DHT22;53791;50.696;4.396;2022-09-14T16:55:20;16.60;99.90
23100;DHT22;53791;50.696;4.396;2022-09-14T16:57:47;16.50;99.90
23100;DHT22;53791;50.696;4.396;2022-09-14T17:00:18;16.50;99.90
23100;DHT22;53791;50.696;4.396;2022-09-14T17:02:50;16.40;99.90
23100;DHT22;53791;50.696;4.396;2022-09-14T17:05:16;16.40;99.90
23100;DHT22;53791;50.696;4.396;2022-09-14T17:07:43;16.30;99.90
23100;DHT22;53791;50.696;4.396;2022-09-14T17:10:11;16.30;99.90
23100;DHT22;53791;50.696;4.396;2022-09-14T17:12:38;16.30;99.90
23100;DHT22;53791;50.696;4.396;2022-09-14T17:15:06;16.30;99.90
23100;DHT22;53791;50.696;4.396;2022-09-14T17:17:34;16.30;99.90
23100;DHT22;53791;50.696;4.396;2022-09-14T17:20:03;16.20;99.90
23100;DHT22;53791;50.696;4.396;2022-09-14T17:22:32;16.10;99.90
23100;DHT22;53791;50.696;4.396;2022-09-14T17:24:59;16.10;99.90
23100;DHT22;53791;50.696;4.396;2022-09-14T17:27:27;16.00;99.90
23100;DHT22;53791;50.696;4.396;2022-09-14T17:29:54;16.00;99.90
23100;DHT22;53791;50.696;4.396;2022-09-14T17:32:22;16.00;99.90